Airfield :
LOGIN :

Register | Disclaimer

   EN    FR    IT 

 










Legend :    VFR   Marginal VFR   IFR   Intensive IFR   Very Intensive IFR
Visi :
Ceiling :
>= 8 km
>= 3000ft
5 to 8 km
1000 to 3000 ft
1500m to 5 km
500 to 1000 ft
800 to 1500m
200 to 500 ft
< 800m
< 200 ft
Symbols :   Thunderstorms  Fog  Heavy snow  Heavy precipitations  Wind > 20 kt
SIGMETs :     Misc.  Thunderstorms  Icing  Turbulence  Mountain Waves  Volcanic Ashes







- Airport Elevation : 3125 ft
- IATA code : ESB


LTAC - Ankara Esenboga

CURRENT METAR :
  • 210920Z 05009KT 9999 FEW040 13/M08 Q1023 NOSIG RMK RWY21L 06009KT 010V080 RWY03L 04008KT 010V090 RWY21R 07008KT 040V110

EXPIRED METARs :
  • 210850Z 03009KT CAVOK 12/M09 Q1023 NOSIG RMK RWY21L 03010KT 360V060 RWY03L 04008KT RWY21R 05010KT 020V080
  • 210820Z 07009KT CAVOK 11/M10 Q1023 NOSIG RMK RWY21L 06009KT 020V090 RWY03L 07008KT RWY21R 07010KT 050V110
  • 210750Z 06009KT CAVOK 11/M09 Q1023 NOSIG RMK RWY21L 05010KT RWY03L 04009KT 010V080 RWY21R 07011KT
  • 210720Z 05008KT CAVOK 10/M10 Q1023 NOSIG RMK RWY21L 05008KT 360V090 RWY03L 03009KT 350V070 RWY21R 06009KT 020V080
  • 210650Z 01010KT CAVOK 09/M07 Q1023 NOSIG RMK RWY21L 03010KT RWY03L 01007KT RWY21R 03008KT 350V060
  • 210620Z 01008KT CAVOK 07/M09 Q1023 NOSIG RMK RWY21L 36007KT RWY03L 01006KT RWY21R 02007KT

TAF TAF LTAC
Valid from the 21 at 06:00 until the 22 at 06:00 UTC


210440Z 2106/2206 VRB02KT CAVOK
BECMG 2107/2109 SCT040
TEMPO 2111/2115 35012KT
BECMG 2114/2116 CAVOK
No reported NOTAMs for that airfield.



MET'MAP, your aeronautical weather chart ! - Copyright ORBIFLY December 2007 - Disclaimer

ORBIFLY MET'MAP TEAM :

Programming & Development : Alexandra Zaïnal
Concept & Development : Baudouin d'Aumeries
Co-Development & Prog : Marc-Olivier Méhu
Technical & hardware support : Manuel Goepfert

Contact : metmap@orbifly.com




SOURCES & CREDITS :

   NOAA